Aviation Digital Data Service (ADDS)

Output produced by METARs form (1632 UTC 16 June 2019)
found at http://www.aviationweather.gov/metar/data/
 
EVLA 161620Z 06004KT 7000 SCT005 OVC031 19/18 Q1013
TAF EVLA 161415Z 1615/1715 09006KT 9999 BKN005 OVC020 
     TEMPO 1615/1618 3000 -RA BR OVC010 
     TEMPO 1618/1701 BKN015 
     BECMG 1701/1703 BKN020 
     BECMG 1705/1707 31010KT
       
EVRA 161620Z 16005KT 130V200 CAVOK 22/14 Q1014 NOSIG
TAF EVRA 161404Z 1615/1715 10006KT CAVOK 
     BECMG 1703/1705 36007KT
       
EVVA 161620Z AUTO 09005KT 060V140 9999 SCT033 BKN041 21/16 Q1014